Time,TemperatureF,DewpointF,PressureIn,WindDirection,WindDirectionDegrees,WindSpeedMPH,WindSpeedGustMPH,Humidity,HourlyPrecipIn,Conditions,Clouds,dailyrainin,SoftwareType,DateUTC
2013-03-06 00:03:00,30.6,23.0,30.36,North,355,5.0,5.0,73,0.00,,,0.00,Wunderground v.1.15,2013-03-06 06:03:00,
2013-03-06 00:10:00,30.3,23.0,30.37,NNW,341,5.0,5.0,74,0.00,,,0.00,Wunderground v.1.15,2013-03-06 06:10:00,
2013-03-06 00:15:00,30.1,23.4,30.37,NNW,341,4.0,5.0,76,0.00,,,0.00,Wunderground v.1.15,2013-03-06 06:15:00,
2013-03-06 00:21:00,30.0,22.7,30.37,North,355,4.0,6.0,74,0.00,,,0.00,Wunderground v.1.15,2013-03-06 06:21:00,
2013-03-06 00:26:00,30.3,22.7,30.37,NNW,334,5.0,7.0,73,0.00,,,0.00,Wunderground v.1.15,2013-03-06 06:26:00,
2013-03-06 00:32:00,30.1,23.8,30.38,NW,321,5.0,5.0,77,0.00,,,0.00,Wunderground v.1.15,2013-03-06 06:32:00,
2013-03-06 00:37:00,29.9,23.6,30.38,NNW,345,4.0,5.0,77,0.00,,,0.00,Wunderground v.1.15,2013-03-06 06:37:00,
2013-03-06 00:43:00,29.8,22.8,30.38,NNW,344,5.0,6.0,75,0.00,,,0.00,Wunderground v.1.15,2013-03-06 06:43:00,
2013-03-06 00:48:00,29.7,22.7,30.38,NNW,346,5.0,6.0,75,0.00,,,0.00,Wunderground v.1.15,2013-03-06 06:48:00,
2013-03-06 00:54:00,30.3,22.0,30.38,North,355,6.0,7.0,71,0.00,,,0.00,Wunderground v.1.15,2013-03-06 06:54:00,
2013-03-06 00:59:00,30.4,22.1,30.38,NNW,346,6.0,7.0,71,0.00,,,0.00,Wunderground v.1.15,2013-03-06 06:59:00,
2013-03-06 01:04:00,30.6,22.0,30.38,North,355,6.0,8.0,70,0.00,,,0.00,Wunderground v.1.15,2013-03-06 07:04:00,
2013-03-06 01:10:00,30.7,21.7,30.38,North,355,6.0,7.0,69,0.00,,,0.00,Wunderground v.1.15,2013-03-06 07:10:00,
2013-03-06 01:16:00,30.3,22.0,30.38,NNW,348,5.0,7.0,71,0.00,,,0.00,Wunderground v.1.15,2013-03-06 07:16:00,
2013-03-06 01:21:00,30.3,21.7,30.38,North,355,6.0,8.0,70,0.00,,,0.00,Wunderground v.1.15,2013-03-06 07:21:00,
2013-03-06 01:28:00,30.4,21.4,30.39,North,355,6.0,8.0,69,0.00,,,0.00,Wunderground v.1.15,2013-03-06 07:28:00,
2013-03-06 01:33:00,30.2,21.6,30.39,NNE,13,6.0,8.0,70,0.00,,,0.00,Wunderground v.1.15,2013-03-06 07:33:00,
2013-03-06 01:39:00,29.7,21.4,30.39,NNE,22,6.0,8.0,71,0.00,,,0.00,Wunderground v.1.15,2013-03-06 07:39:00,
2013-03-06 01:46:00,29.5,21.3,30.38,NNE,24,6.0,9.0,71,0.00,,,0.00,Wunderground v.1.15,2013-03-06 07:46:00,
2013-03-06 01:51:00,29.6,21.3,30.39,NNE,23,7.0,7.0,71,0.00,,,0.00,Wunderground v.1.15,2013-03-06 07:51:00,
2013-03-06 01:56:00,29.4,21.2,30.39,NNE,16,5.0,7.0,71,0.00,,,0.00,Wunderground v.1.15,2013-03-06 07:56:00,
2013-03-06 02:01:00,29.2,21.0,30.39,North,5,4.0,5.0,71,0.00,,,0.00,Wunderground v.1.15,2013-03-06 08:01:00,
2013-03-06 02:06:00,29.5,21.3,30.39,North,355,4.0,5.0,71,0.00,,,0.00,Wunderground v.1.15,2013-03-06 08:06:00,
2013-03-06 02:12:00,29.4,21.8,30.39,NNW,346,4.0,4.0,73,0.00,,,0.00,Wunderground v.1.15,2013-03-06 08:12:00,
2013-03-06 02:18:00,29.2,21.0,30.39,North,5,4.0,6.0,71,0.00,,,0.00,Wunderground v.1.15,2013-03-06 08:18:00,
2013-03-06 02:23:00,29.4,20.8,30.39,NNE,13,5.0,6.0,70,0.00,,,0.00,Wunderground v.1.15,2013-03-06 08:23:00,
2013-03-06 02:29:00,29.4,20.8,30.39,North,11,6.0,6.0,70,0.00,,,0.00,Wunderground v.1.15,2013-03-06 08:29:00,
2013-03-06 02:34:00,29.3,20.7,30.39,North,5,6.0,7.0,70,0.00,,,0.00,Wunderground v.1.15,2013-03-06 08:34:00,
2013-03-06 02:40:00,29.2,21.0,30.39,North,355,5.0,7.0,71,0.00,,,0.00,Wunderground v.1.15,2013-03-06 08:40:00,
2013-03-06 02:46:00,29.2,21.0,30.38,North,5,6.0,7.0,71,0.00,,,0.00,Wunderground v.1.15,2013-03-06 08:46:00,
2013-03-06 02:52:00,29.3,20.7,30.39,North,5,6.0,7.0,70,0.00,,,0.00,Wunderground v.1.15,2013-03-06 08:52:00,
2013-03-06 02:58:00,29.4,20.8,30.38,North,11,6.0,8.0,70,0.00,,,0.00,Wunderground v.1.15,2013-03-06 08:58:00,
2013-03-06 03:03:00,29.5,20.6,30.38,North,355,6.0,8.0,69,0.00,,,0.00,Wunderground v.1.15,2013-03-06 09:03:00,
2013-03-06 03:10:00,29.2,20.6,30.38,North,11,6.0,7.0,70,0.00,,,0.00,Wunderground v.1.15,2013-03-06 09:10:00,
2013-03-06 03:16:00,28.6,20.4,30.37,NE,34,6.0,7.0,71,0.00,,,0.00,Wunderground v.1.15,2013-03-06 09:16:00,
2013-03-06 03:21:00,28.4,20.5,30.37,NNE,27,7.0,8.0,72,0.00,,,0.00,Wunderground v.1.15,2013-03-06 09:21:00,
2013-03-06 03:26:00,28.2,20.7,30.37,NNE,31,7.0,8.0,73,0.00,,,0.00,Wunderground v.1.15,2013-03-06 09:26:00,
2013-03-06 03:32:00,27.9,20.7,30.37,NE,41,7.0,9.0,74,0.00,,,0.00,Wunderground v.1.15,2013-03-06 09:32:00,
2013-03-06 03:39:00,27.7,20.8,30.37,NNE,28,8.0,9.0,75,0.00,,,0.00,Wunderground v.1.15,2013-03-06 09:39:00,
2013-03-06 03:44:00,27.6,20.7,30.37,NE,40,8.0,10.0,75,0.00,,,0.00,Wunderground v.1.15,2013-03-06 09:44:00,
2013-03-06 03:49:00,27.4,20.8,30.37,NNE,33,8.0,10.0,76,0.00,,,0.00,Wunderground v.1.15,2013-03-06 09:49:00,
2013-03-06 03:55:00,27.4,20.5,30.37,NE,38,7.0,9.0,75,0.00,,,0.00,Wunderground v.1.15,2013-03-06 09:55:00,
2013-03-06 04:01:00,27.3,20.7,30.37,NE,42,7.0,11.0,76,0.00,,,0.00,Wunderground v.1.15,2013-03-06 10:01:00,
2013-03-06 04:07:00,27.1,20.5,30.37,NE,43,8.0,11.0,76,0.00,,,0.00,Wunderground v.1.15,2013-03-06 10:07:00,
2013-03-06 04:13:00,27.1,20.5,30.37,NE,42,7.0,9.0,76,0.00,,,0.00,Wunderground v.1.15,2013-03-06 10:13:00,
2013-03-06 04:19:00,27.1,20.5,30.37,NE,44,7.0,9.0,76,0.00,,,0.00,Wunderground v.1.15,2013-03-06 10:19:00,
2013-03-06 04:24:00,26.9,20.7,30.37,NE,49,7.0,8.0,77,0.00,,,0.00,Wunderground v.1.15,2013-03-06 10:24:00,
2013-03-06 04:30:00,26.7,20.5,30.38,NE,49,5.0,5.0,77,0.00,,,0.00,Wunderground v.1.15,2013-03-06 10:30:00,
2013-03-06 04:36:00,26.5,20.3,30.38,NE,46,3.0,5.0,77,0.00,,,0.00,Wunderground v.1.15,2013-03-06 10:36:00,
2013-03-06 04:42:00,26.3,20.4,30.38,NE,46,2.0,2.0,78,0.00,,,0.00,Wunderground v.1.15,2013-03-06 10:42:00,
2013-03-06 04:48:00,26.2,20.3,30.37,NE,46,1.0,2.0,78,0.00,,,0.00,Wunderground v.1.15,2013-03-06 10:48:00,
2013-03-06 04:53:00,26.1,20.5,30.37,NE,46,1.0,4.0,79,0.00,,,0.00,Wunderground v.1.15,2013-03-06 10:53:00,
2013-03-06 04:58:00,25.7,20.1,30.37,NE,37,3.0,5.0,79,0.00,,,0.00,Wunderground v.1.15,2013-03-06 10:58:00,
2013-03-06 05:03:00,25.5,20.2,30.37,NE,36,4.0,5.0,80,0.00,,,0.00,Wunderground v.1.15,2013-03-06 11:03:00,
2013-03-06 05:09:00,25.5,20.2,30.36,NE,53,6.0,9.0,80,0.00,,,0.00,Wunderground v.1.15,2013-03-06 11:09:00,
2013-03-06 05:14:00,25.5,20.2,30.36,NE,52,8.0,10.0,80,0.00,,,0.00,Wunderground v.1.15,2013-03-06 11:14:00,
2013-03-06 05:20:00,25.5,20.2,30.36,NE,49,8.0,9.0,80,0.00,,,0.00,Wunderground v.1.15,2013-03-06 11:20:00,
2013-03-06 05:25:00,25.8,19.9,30.37,NE,39,8.0,9.0,78,0.00,,,0.00,Wunderground v.1.15,2013-03-06 11:25:00,
2013-03-06 05:31:00,25.9,19.7,30.37,NE,53,7.0,7.0,77,0.00,,,0.00,Wunderground v.1.15,2013-03-06 11:31:00,
2013-03-06 05:38:00,25.5,19.6,30.36,NE,55,6.0,9.0,78,0.00,,,0.00,Wunderground v.1.15,2013-03-06 11:38:00,
2013-03-06 05:44:00,25.3,19.7,30.36,ENE,63,8.0,10.0,79,0.00,,,0.00,Wunderground v.1.15,2013-03-06 11:44:00,
2013-03-06 05:49:00,25.3,19.7,30.37,ENE,61,8.0,10.0,79,0.00,,,0.00,Wunderground v.1.15,2013-03-06 11:49:00,
2013-03-06 05:54:00,25.2,19.6,30.37,ENE,67,7.0,9.0,79,0.00,,,0.00,Wunderground v.1.15,2013-03-06 11:54:00,
2013-03-06 06:00:00,24.9,19.6,30.37,ENE,57,5.0,5.0,80,0.00,,,0.00,Wunderground v.1.15,2013-03-06 12:00:00,
2013-03-06 06:06:00,24.7,19.4,30.38,ENE,61,4.0,5.0,80,0.00,,,0.00,Wunderground v.1.15,2013-03-06 12:06:00,
2013-03-06 06:11:00,24.5,19.2,30.37,ENE,57,5.0,8.0,80,0.00,,,0.00,Wunderground v.1.15,2013-03-06 12:11:00,
2013-03-06 06:17:00,24.6,19.3,30.37,ENE,60,6.0,9.0,80,0.00,,,0.00,Wunderground v.1.15,2013-03-06 12:17:00,
2013-03-06 06:23:00,24.8,19.5,30.37,ENE,59,7.0,9.0,80,0.00,,,0.00,Wunderground v.1.15,2013-03-06 12:23:00,
2013-03-06 06:28:00,24.9,19.6,30.37,ENE,61,8.0,10.0,80,0.00,,,0.00,Wunderground v.1.15,2013-03-06 12:28:00,
2013-03-06 06:34:00,24.8,19.2,30.37,ENE,59,7.0,7.0,79,0.00,,,0.00,Wunderground v.1.15,2013-03-06 12:34:00,
2013-03-06 06:40:00,24.6,19.0,30.38,ENE,59,5.0,7.0,79,0.00,,,0.00,Wunderground v.1.15,2013-03-06 12:40:00,
2013-03-06 06:45:00,24.4,18.8,30.38,ENE,58,5.0,7.0,79,0.00,,,0.00,Wunderground v.1.15,2013-03-06 12:45:00,
2013-03-06 06:50:00,24.2,18.9,30.38,ENE,57,4.0,4.0,80,0.00,,,0.00,Wunderground v.1.15,2013-03-06 12:50:00,
2013-03-06 06:56:00,24.1,19.1,30.38,NE,55,4.0,5.0,81,0.00,,,0.00,Wunderground v.1.15,2013-03-06 12:56:00,
2013-03-06 07:01:00,24.1,18.8,30.39,NE,51,4.0,4.0,80,0.00,,,0.00,Wunderground v.1.15,2013-03-06 13:01:00,
2013-03-06 07:06:00,24.1,18.5,30.39,NE,44,3.0,5.0,79,0.00,,,0.00,Wunderground v.1.15,2013-03-06 13:06:00,
2013-03-06 07:12:00,24.1,18.8,30.38,NE,47,4.0,6.0,80,0.00,,,0.00,Wunderground v.1.15,2013-03-06 13:12:00,
2013-03-06 07:17:00,24.3,19.0,30.38,NE,51,5.0,6.0,80,0.00,,,0.00,Wunderground v.1.15,2013-03-06 13:17:00,
2013-03-06 07:23:00,24.5,19.5,30.38,NE,56,5.0,5.0,81,0.00,,,0.00,Wunderground v.1.15,2013-03-06 13:23:00,
2013-03-06 07:28:00,24.7,19.4,30.38,NE,53,5.0,5.0,80,0.00,,,0.00,Wunderground v.1.15,2013-03-06 13:28:00,
2013-03-06 07:34:00,25.0,19.7,30.38,ENE,63,5.0,7.0,80,0.00,,,0.00,Wunderground v.1.15,2013-03-06 13:34:00,
2013-03-06 07:39:00,25.2,19.9,30.38,ENE,64,4.0,7.0,80,0.00,,,0.00,Wunderground v.1.15,2013-03-06 13:39:00,
2013-03-06 07:45:00,25.4,19.8,30.39,ENE,72,4.0,5.0,79,0.00,,,0.00,Wunderground v.1.15,2013-03-06 13:45:00,
2013-03-06 07:51:00,25.6,20.0,30.39,ENE,74,3.0,3.0,79,0.00,,,0.00,Wunderground v.1.15,2013-03-06 13:51:00,
2013-03-06 07:56:00,26.2,20.3,30.39,East,82,2.0,5.0,78,0.00,,,0.00,Wunderground v.1.15,2013-03-06 13:56:00,
2013-03-06 08:01:00,26.8,20.2,30.40,East,85,2.0,3.0,76,0.00,,,0.00,Wunderground v.1.15,2013-03-06 14:01:00,
2013-03-06 08:06:00,27.4,19.9,30.40,East,85,1.0,3.0,73,0.00,,,0.00,Wunderground v.1.15,2013-03-06 14:06:00,
2013-03-06 08:11:00,28.0,20.1,30.41,East,85,1.0,1.0,72,0.00,,,0.00,Wunderground v.1.15,2013-03-06 14:11:00,
2013-03-06 08:17:00,28.1,19.9,30.40,ENE,71,1.0,3.0,71,0.00,,,0.00,Wunderground v.1.15,2013-03-06 14:17:00,
2013-03-06 08:23:00,28.5,20.3,30.41,SE,142,1.0,5.0,71,0.00,,,0.00,Wunderground v.1.15,2013-03-06 14:23:00,
2013-03-06 08:28:00,28.7,19.8,30.41,SE,127,2.0,5.0,69,0.00,,,0.00,Wunderground v.1.15,2013-03-06 14:28:00,
2013-03-06 08:34:00,29.1,20.5,30.40,ESE,109,2.0,3.0,70,0.00,,,0.00,Wunderground v.1.15,2013-03-06 14:34:00,
2013-03-06 08:39:00,29.2,20.3,30.40,ENE,74,3.0,5.0,69,0.00,,,0.00,Wunderground v.1.15,2013-03-06 14:39:00,
2013-03-06 08:45:00,29.2,19.9,30.41,East,90,5.0,8.0,68,0.00,,,0.00,Wunderground v.1.15,2013-03-06 14:45:00,
2013-03-06 08:50:00,29.3,20.0,30.41,ENE,74,6.0,6.0,68,0.00,,,0.00,Wunderground v.1.15,2013-03-06 14:50:00,
2013-03-06 08:56:00,29.3,20.7,30.41,East,91,5.0,7.0,70,0.00,,,0.00,Wunderground v.1.15,2013-03-06 14:56:00,
2013-03-06 09:01:00,29.7,21.4,30.41,SE,136,4.0,5.0,71,0.00,,,0.00,Wunderground v.1.15,2013-03-06 15:01:00,
2013-03-06 09:06:00,29.9,21.0,30.41,SE,129,4.0,5.0,69,0.00,,,0.00,Wunderground v.1.15,2013-03-06 15:06:00,
2013-03-06 09:11:00,30.2,21.2,30.41,SE,131,4.0,6.0,69,0.00,,,0.00,Wunderground v.1.15,2013-03-06 15:11:00,
2013-03-06 09:16:00,30.4,21.1,30.41,SE,137,4.0,7.0,68,0.00,,,0.00,Wunderground v.1.15,2013-03-06 15:16:00,
2013-03-06 09:23:00,30.6,21.6,30.41,SE,126,4.0,7.0,69,0.00,,,0.00,Wunderground v.1.15,2013-03-06 15:23:00,
2013-03-06 09:28:00,31.0,21.7,30.41,SE,143,4.0,8.0,68,0.00,,,0.00,Wunderground v.1.15,2013-03-06 15:28:00,
2013-03-06 09:33:00,31.1,22.1,30.41,ESE,121,4.0,5.0,69,0.00,,,0.00,Wunderground v.1.15,2013-03-06 15:33:00,
2013-03-06 09:39:00,30.9,21.6,30.41,SE,128,4.0,6.0,68,0.00,,,0.00,Wunderground v.1.15,2013-03-06 15:39:00,
2013-03-06 09:46:00,30.8,21.1,30.41,SE,134,5.0,7.0,67,0.00,,,0.00,Wunderground v.1.15,2013-03-06 15:46:00,
2013-03-06 09:52:00,31.0,21.3,30.41,ESE,112,5.0,6.0,67,0.00,,,0.00,Wunderground v.1.15,2013-03-06 15:52:00,
2013-03-06 09:58:00,31.7,22.0,30.41,SE,136,4.0,7.0,67,0.00,,,0.00,Wunderground v.1.15,2013-03-06 15:58:00,
2013-03-06 10:03:00,31.6,22.2,30.41,SSE,165,4.0,5.0,68,0.00,,,0.00,Wunderground v.1.15,2013-03-06 16:03:00,
2013-03-06 10:08:00,31.5,21.8,30.41,SE,128,3.0,5.0,67,0.00,,,0.00,Wunderground v.1.15,2013-03-06 16:08:00,
2013-03-06 10:14:00,31.8,22.1,30.41,SSE,155,3.0,7.0,67,0.00,,,0.00,Wunderground v.1.15,2013-03-06 16:14:00,
2013-03-06 10:19:00,31.8,22.8,30.41,SSE,165,4.0,8.0,69,0.00,,,0.00,Wunderground v.1.15,2013-03-06 16:19:00,
2013-03-06 10:25:00,32.4,24.0,30.40,SE,136,5.0,7.0,71,0.00,,,0.00,Wunderground v.1.15,2013-03-06 16:25:00,
2013-03-06 10:30:00,33.0,22.9,30.40,SE,128,5.0,5.0,66,0.00,,,0.00,Wunderground v.1.15,2013-03-06 16:30:00,
2013-03-06 10:36:00,33.4,23.6,30.40,ESE,116,6.0,11.0,67,0.00,,,0.00,Wunderground v.1.15,2013-03-06 16:36:00,
2013-03-06 10:41:00,33.7,23.5,30.40,SE,146,5.0,6.0,66,0.00,,,0.00,Wunderground v.1.15,2013-03-06 16:41:00,
2013-03-06 10:46:00,34.0,24.5,30.40,SE,144,5.0,9.0,68,0.00,,,0.00,Wunderground v.1.15,2013-03-06 16:46:00,
2013-03-06 10:52:00,34.0,24.2,30.40,SE,133,5.0,7.0,67,0.00,,,0.00,Wunderground v.1.15,2013-03-06 16:52:00,
2013-03-06 10:58:00,34.4,23.8,30.40,SE,133,5.0,7.0,65,0.00,,,0.00,Wunderground v.1.15,2013-03-06 16:58:00,
2013-03-06 11:03:00,34.7,24.1,30.40,SSE,152,5.0,6.0,65,0.00,,,0.00,Wunderground v.1.15,2013-03-06 17:03:00,
2013-03-06 11:08:00,35.3,23.6,30.40,SSE,152,4.0,6.0,62,0.00,,,0.00,Wunderground v.1.15,2013-03-06 17:08:00,
2013-03-06 11:14:00,35.6,23.5,30.40,ESE,113,4.0,8.0,61,0.00,,,0.00,Wunderground v.1.15,2013-03-06 17:14:00,
2013-03-06 11:20:00,36.1,24.3,30.40,SE,137,4.0,5.0,62,0.00,,,0.00,Wunderground v.1.15,2013-03-06 17:20:00,
2013-03-06 11:25:00,36.2,24.8,30.39,SE,130,4.0,6.0,63,0.00,,,0.00,Wunderground v.1.15,2013-03-06 17:25:00,
2013-03-06 11:31:00,36.3,24.5,30.39,SSW,192,4.0,7.0,62,0.00,,,0.00,Wunderground v.1.15,2013-03-06 17:31:00,
2013-03-06 11:36:00,36.2,24.4,30.39,SSE,163,5.0,9.0,62,0.00,,,0.00,Wunderground v.1.15,2013-03-06 17:36:00,
2013-03-06 11:42:00,36.2,24.4,30.39,SSW,192,5.0,8.0,62,0.00,,,0.00,Wunderground v.1.15,2013-03-06 17:42:00,
2013-03-06 11:47:00,36.2,24.0,30.38,South,184,5.0,8.0,61,0.00,,,0.00,Wunderground v.1.15,2013-03-06 17:47:00,
2013-03-06 11:53:00,36.5,23.9,30.38,SSE,166,4.0,6.0,60,0.00,,,0.00,Wunderground v.1.15,2013-03-06 17:53:00,
2013-03-06 11:59:00,37.1,25.7,30.38,SE,125,4.0,6.0,63,0.00,,,0.00,Wunderground v.1.15,2013-03-06 17:59:00,
2013-03-06 12:04:00,38.0,26.1,30.37,SSE,165,5.0,8.0,62,0.00,,,0.00,Wunderground v.1.15,2013-03-06 18:04:00,
2013-03-06 12:10:00,38.5,26.6,30.36,SE,133,5.0,5.0,62,0.00,,,0.00,Wunderground v.1.15,2013-03-06 18:10:00,
2013-03-06 12:16:00,38.7,26.8,30.36,SSE,148,5.0,8.0,62,0.00,,,0.00,Wunderground v.1.15,2013-03-06 18:16:00,
2013-03-06 12:23:00,38.6,25.9,30.35,SSE,152,4.0,7.0,60,0.00,,,0.00,Wunderground v.1.15,2013-03-06 18:23:00,
2013-03-06 12:29:00,38.5,25.8,30.35,SSE,147,5.0,7.0,60,0.00,,,0.00,Wunderground v.1.15,2013-03-06 18:29:00,
2013-03-06 12:35:00,38.3,24.4,30.35,South,171,6.0,8.0,57,0.00,,,0.00,Wunderground v.1.15,2013-03-06 18:35:00,
2013-03-06 12:41:00,39.2,26.9,30.35,SE,141,5.0,8.0,61,0.00,,,0.00,Wunderground v.1.15,2013-03-06 18:41:00,
2013-03-06 12:47:00,39.3,25.3,30.34,SE,140,5.0,10.0,57,0.00,,,0.00,Wunderground v.1.15,2013-03-06 18:47:00,
2013-03-06 12:53:00,39.7,25.3,30.34,South,188,6.0,7.0,56,0.00,,,0.00,Wunderground v.1.15,2013-03-06 18:53:00,
2013-03-06 12:58:00,40.2,26.6,30.34,South,171,6.0,9.0,58,0.00,,,0.00,Wunderground v.1.15,2013-03-06 18:58:00,
2013-03-06 13:03:00,40.6,26.1,30.34,SE,146,6.0,11.0,56,0.00,,,0.00,Wunderground v.1.15,2013-03-06 19:03:00,
2013-03-06 13:09:00,40.9,27.7,30.33,SSE,153,6.0,11.0,59,0.00,,,0.00,Wunderground v.1.15,2013-03-06 19:09:00,
2013-03-06 13:14:00,41.6,27.1,30.33,SE,126,6.0,10.0,56,0.00,,,0.00,Wunderground v.1.15,2013-03-06 19:14:00,
2013-03-06 13:20:00,41.8,27.2,30.32,SE,146,7.0,7.0,56,0.00,,,0.00,Wunderground v.1.15,2013-03-06 19:20:00,
2013-03-06 13:26:00,41.3,25.9,30.32,SSW,213,7.0,11.0,54,0.00,,,0.00,Wunderground v.1.15,2013-03-06 19:26:00,
2013-03-06 13:32:00,41.4,28.1,30.32,South,177,7.0,8.0,59,0.00,,,0.00,Wunderground v.1.15,2013-03-06 19:32:00,
2013-03-06 13:38:00,41.3,25.9,30.32,South,186,7.0,11.0,54,0.00,,,0.00,Wunderground v.1.15,2013-03-06 19:38:00,
2013-03-06 13:43:00,41.7,28.0,30.31,SE,131,8.0,12.0,58,0.00,,,0.00,Wunderground v.1.15,2013-03-06 19:43:00,
2013-03-06 13:50:00,41.5,25.2,30.31,South,171,8.0,8.0,52,0.00,,,0.00,Wunderground v.1.15,2013-03-06 19:50:00,
2013-03-06 13:56:00,41.7,26.3,30.30,SSW,194,6.0,10.0,54,0.00,,,0.00,Wunderground v.1.15,2013-03-06 19:56:00,
2013-03-06 14:01:00,42.6,28.0,30.30,SE,134,6.0,10.0,56,0.00,,,0.00,Wunderground v.1.15,2013-03-06 20:01:00,
2013-03-06 14:07:00,43.4,26.5,30.30,SSE,163,8.0,13.0,51,0.00,,,0.00,Wunderground v.1.15,2013-03-06 20:07:00,
2013-03-06 14:13:00,43.5,27.5,30.29,SSE,153,8.0,11.0,53,0.00,,,0.00,Wunderground v.1.15,2013-03-06 20:13:00,
2013-03-06 14:19:00,43.8,26.3,30.29,SSE,163,7.0,12.0,50,0.00,,,0.00,Wunderground v.1.15,2013-03-06 20:19:00,
2013-03-06 14:24:00,44.1,26.6,30.28,SE,138,7.0,10.0,50,0.00,,,0.00,Wunderground v.1.15,2013-03-06 20:24:00,
2013-03-06 14:29:00,45.0,30.7,30.28,SSE,163,8.0,11.0,57,0.00,,,0.00,Wunderground v.1.15,2013-03-06 20:29:00,
2013-03-06 14:34:00,45.1,29.9,30.27,South,169,8.0,13.0,55,0.00,,,0.00,Wunderground v.1.15,2013-03-06 20:34:00,
2013-03-06 14:40:00,44.9,29.2,30.27,SE,135,8.0,16.0,54,0.00,,,0.00,Wunderground v.1.15,2013-03-06 20:40:00,
2013-03-06 14:46:00,45.2,28.1,30.27,SSE,148,8.0,16.0,51,0.00,,,0.00,Wunderground v.1.15,2013-03-06 20:46:00,
2013-03-06 14:52:00,45.3,27.7,30.26,SE,142,8.0,12.0,50,0.00,,,0.00,Wunderground v.1.15,2013-03-06 20:52:00,
2013-03-06 14:57:00,45.1,28.5,30.26,SE,138,9.0,12.0,52,0.00,,,0.00,Wunderground v.1.15,2013-03-06 20:57:00,
2013-03-06 15:02:00,45.3,29.6,30.26,SE,145,10.0,13.0,54,0.00,,,0.00,Wunderground v.1.15,2013-03-06 21:02:00,
2013-03-06 15:08:00,45.1,28.5,30.26,SE,130,10.0,14.0,52,0.00,,,0.00,Wunderground v.1.15,2013-03-06 21:08:00,
2013-03-06 15:13:00,45.2,29.5,30.25,SSE,149,10.0,14.0,54,0.00,,,0.00,Wunderground v.1.15,2013-03-06 21:13:00,
2013-03-06 15:19:00,45.0,28.4,30.25,SE,144,11.0,15.0,52,0.00,,,0.00,Wunderground v.1.15,2013-03-06 21:19:00,
2013-03-06 15:24:00,44.9,27.8,30.25,SE,145,11.0,14.0,51,0.00,,,0.00,Wunderground v.1.15,2013-03-06 21:24:00,
2013-03-06 15:30:00,44.5,28.4,30.25,SSE,148,13.0,13.0,53,0.00,,,0.00,Wunderground v.1.15,2013-03-06 21:30:00,
2013-03-06 15:36:00,44.8,29.2,30.24,SE,142,11.0,16.0,54,0.00,,,0.00,Wunderground v.1.15,2013-03-06 21:36:00,
2013-03-06 15:41:00,44.7,27.7,30.24,SSE,149,11.0,14.0,51,0.00,,,0.00,Wunderground v.1.15,2013-03-06 21:41:00,
2013-03-06 15:47:00,44.7,27.7,30.24,SE,140,13.0,16.0,51,0.00,,,0.00,Wunderground v.1.15,2013-03-06 21:47:00,
2013-03-06 15:53:00,44.9,28.3,30.23,SE,136,12.0,14.0,52,0.00,,,0.00,Wunderground v.1.15,2013-03-06 21:53:00,
2013-03-06 15:58:00,44.9,28.3,30.23,SSE,151,12.0,15.0,52,0.00,,,0.00,Wunderground v.1.15,2013-03-06 21:58:00,
2013-03-06 16:03:00,44.7,27.7,30.23,SE,129,13.0,16.0,51,0.00,,,0.00,Wunderground v.1.15,2013-03-06 22:03:00,
2013-03-06 16:09:00,45.1,28.0,30.22,SE,144,13.0,16.0,51,0.00,,,0.00,Wunderground v.1.15,2013-03-06 22:09:00,
2013-03-06 16:15:00,45.4,29.3,30.22,SSE,148,12.0,15.0,53,0.00,,,0.00,Wunderground v.1.15,2013-03-06 22:15:00,
2013-03-06 16:21:00,45.3,29.2,30.22,SE,141,13.0,16.0,53,0.00,,,0.00,Wunderground v.1.15,2013-03-06 22:21:00,
2013-03-06 16:26:00,45.6,29.0,30.21,SE,135,13.0,16.0,52,0.00,,,0.00,Wunderground v.1.15,2013-03-06 22:26:00,
2013-03-06 16:32:00,45.4,29.3,30.21,SE,144,13.0,17.0,53,0.00,,,0.00,Wunderground v.1.15,2013-03-06 22:32:00,
2013-03-06 16:37:00,45.2,28.1,30.21,SE,128,13.0,17.0,51,0.00,,,0.00,Wunderground v.1.15,2013-03-06 22:37:00,
2013-03-06 16:43:00,45.1,27.1,30.21,SE,136,13.0,15.0,49,0.00,,,0.00,Wunderground v.1.15,2013-03-06 22:43:00,
2013-03-06 16:48:00,45.0,28.9,30.21,SE,138,13.0,15.0,53,0.00,,,0.00,Wunderground v.1.15,2013-03-06 22:48:00,
2013-03-06 16:54:00,45.2,28.6,30.20,SE,133,12.0,13.0,52,0.00,,,0.00,Wunderground v.1.15,2013-03-06 22:54:00,
2013-03-06 17:00:00,45.2,28.1,30.20,SSE,147,12.0,16.0,51,0.00,,,0.00,Wunderground v.1.15,2013-03-06 23:00:00,
2013-03-06 17:05:00,45.0,27.5,30.20,SE,144,13.0,16.0,50,0.00,,,0.00,Wunderground v.1.15,2013-03-06 23:05:00,
2013-03-06 17:10:00,45.1,27.6,30.20,SE,146,14.0,14.0,50,0.00,,,0.00,Wunderground v.1.15,2013-03-06 23:10:00,
2013-03-06 17:16:00,45.2,27.2,30.19,SSE,151,13.0,18.0,49,0.00,,,0.00,Wunderground v.1.15,2013-03-06 23:16:00,
2013-03-06 17:22:00,45.2,27.6,30.19,SE,136,12.0,14.0,50,0.00,,,0.00,Wunderground v.1.15,2013-03-06 23:22:00,
2013-03-06 17:27:00,45.2,27.2,30.19,SE,141,12.0,14.0,49,0.00,,,0.00,Wunderground v.1.15,2013-03-06 23:27:00,
2013-03-06 17:33:00,45.1,27.6,30.19,SSE,148,12.0,15.0,50,0.00,,,0.00,Wunderground v.1.15,2013-03-06 23:33:00,
2013-03-06 17:39:00,45.0,28.4,30.18,SE,140,11.0,15.0,52,0.00,,,0.00,Wunderground v.1.15,2013-03-06 23:39:00,
2013-03-06 17:45:00,44.9,28.3,30.18,SE,138,10.0,11.0,52,0.00,,,0.00,Wunderground v.1.15,2013-03-06 23:45:00,
2013-03-06 17:50:00,44.8,28.7,30.18,SSE,150,10.0,10.0,53,0.00,,,0.00,Wunderground v.1.15,2013-03-06 23:50:00,
2013-03-06 17:56:00,44.7,28.1,30.18,SSE,154,9.0,11.0,52,0.00,,,0.00,Wunderground v.1.15,2013-03-06 23:56:00,
2013-03-06 18:01:00,44.5,29.3,30.18,SSE,159,9.0,11.0,55,0.00,,,0.00,Wunderground v.1.15,2013-03-07 00:01:00,
2013-03-06 18:07:00,44.4,27.9,30.17,SE,145,9.0,12.0,52,0.00,,,0.00,Wunderground v.1.15,2013-03-07 00:07:00,
2013-03-06 18:13:00,44.3,27.3,30.17,SE,143,10.0,12.0,51,0.00,,,0.00,Wunderground v.1.15,2013-03-07 00:13:00,
2013-03-06 18:18:00,44.0,27.0,30.17,SSE,153,10.0,13.0,51,0.00,,,0.00,Wunderground v.1.15,2013-03-07 00:18:00,
2013-03-06 18:24:00,43.6,27.1,30.17,SSE,157,10.0,14.0,52,0.00,,,0.00,Wunderground v.1.15,2013-03-07 00:24:00,
2013-03-06 18:29:00,43.3,27.3,30.18,SSE,157,10.0,14.0,53,0.00,,,0.00,Wunderground v.1.15,2013-03-07 00:29:00,
2013-03-06 18:35:00,43.0,27.0,30.18,SSE,160,9.0,12.0,53,0.00,,,0.00,Wunderground v.1.15,2013-03-07 00:35:00,
2013-03-06 18:40:00,42.8,27.3,30.18,SSE,158,9.0,9.0,54,0.00,,,0.00,Wunderground v.1.15,2013-03-07 00:40:00,
2013-03-06 18:46:00,42.6,27.5,30.18,SSE,157,9.0,13.0,55,0.00,,,0.00,Wunderground v.1.15,2013-03-07 00:46:00,
2013-03-06 18:52:00,42.3,27.3,30.17,SSE,155,9.0,11.0,55,0.00,,,0.00,Wunderground v.1.15,2013-03-07 00:52:00,
2013-03-06 18:57:00,42.0,27.4,30.17,SSE,149,9.0,12.0,56,0.00,,,0.00,Wunderground v.1.15,2013-03-07 00:57:00,
2013-03-06 19:02:00,41.8,28.1,30.17,SE,142,9.0,10.0,58,0.00,,,0.00,Wunderground v.1.15,2013-03-07 01:02:00,
2013-03-06 19:08:00,41.5,27.8,30.17,SE,143,8.0,10.0,58,0.00,,,0.00,Wunderground v.1.15,2013-03-07 01:08:00,
2013-03-06 19:13:00,41.3,28.0,30.17,SE,144,7.0,8.0,59,0.00,,,0.00,Wunderground v.1.15,2013-03-07 01:13:00,
2013-03-06 19:18:00,41.0,28.2,30.17,SE,138,7.0,8.0,60,0.00,,,0.00,Wunderground v.1.15,2013-03-07 01:18:00,
2013-03-06 19:24:00,40.9,27.7,30.17,SE,140,7.0,8.0,59,0.00,,,0.00,Wunderground v.1.15,2013-03-07 01:24:00,
2013-03-06 19:29:00,40.7,27.9,30.17,SSE,147,7.0,8.0,60,0.00,,,0.00,Wunderground v.1.15,2013-03-07 01:29:00,
2013-03-06 19:35:00,40.6,27.0,30.17,SSE,154,6.0,7.0,58,0.00,,,0.00,Wunderground v.1.15,2013-03-07 01:35:00,
2013-03-06 19:40:00,40.6,27.0,30.17,SSE,150,7.0,10.0,58,0.00,,,0.00,Wunderground v.1.15,2013-03-07 01:40:00,
2013-03-06 19:46:00,40.6,26.5,30.17,SSE,150,8.0,10.0,57,0.00,,,0.00,Wunderground v.1.15,2013-03-07 01:46:00,
2013-03-06 19:51:00,40.7,25.8,30.17,SSE,167,8.0,10.0,55,0.00,,,0.00,Wunderground v.1.15,2013-03-07 01:51:00,
2013-03-06 19:57:00,40.6,26.5,30.17,SSE,157,8.0,11.0,57,0.00,,,0.00,Wunderground v.1.15,2013-03-07 01:57:00,
2013-03-06 20:02:00,40.3,27.1,30.18,SE,140,8.0,9.0,59,0.00,,,0.00,Wunderground v.1.15,2013-03-07 02:02:00,
2013-03-06 20:08:00,39.9,26.3,30.17,SE,146,7.0,9.0,58,0.00,,,0.00,Wunderground v.1.15,2013-03-07 02:08:00,
2013-03-06 20:13:00,39.8,25.4,30.17,SE,146,8.0,10.0,56,0.00,,,0.00,Wunderground v.1.15,2013-03-07 02:13:00,
2013-03-06 20:19:00,39.8,25.4,30.17,SE,138,9.0,12.0,56,0.00,,,0.00,Wunderground v.1.15,2013-03-07 02:19:00,
2013-03-06 20:24:00,39.7,24.8,30.16,SE,140,10.0,11.0,55,0.00,,,0.00,Wunderground v.1.15,2013-03-07 02:24:00,
2013-03-06 20:30:00,39.7,24.8,30.16,SE,130,9.0,10.0,55,0.00,,,0.00,Wunderground v.1.15,2013-03-07 02:30:00,
2013-03-06 20:36:00,39.6,25.6,30.16,SE,138,9.0,11.0,57,0.00,,,0.00,Wunderground v.1.15,2013-03-07 02:36:00,
2013-03-06 20:41:00,39.2,25.2,30.16,SE,139,9.0,11.0,57,0.00,,,0.00,Wunderground v.1.15,2013-03-07 02:41:00,
2013-03-06 20:47:00,39.1,24.7,30.16,SE,132,9.0,12.0,56,0.00,,,0.00,Wunderground v.1.15,2013-03-07 02:47:00,
2013-03-06 20:53:00,39.2,24.4,30.16,SE,133,9.0,11.0,55,0.00,,,0.00,Wunderground v.1.15,2013-03-07 02:53:00,
2013-03-06 20:58:00,39.2,25.2,30.16,SE,136,8.0,11.0,57,0.00,,,0.00,Wunderground v.1.15,2013-03-07 02:58:00,
2013-03-06 21:03:00,38.8,25.3,30.16,SE,132,8.0,8.0,58,0.00,,,0.00,Wunderground v.1.15,2013-03-07 03:03:00,
2013-03-06 21:09:00,38.4,24.5,30.16,SE,136,7.0,8.0,57,0.00,,,0.00,Wunderground v.1.15,2013-03-07 03:09:00,
2013-03-06 21:14:00,38.3,24.4,30.16,SE,130,7.0,8.0,57,0.00,,,0.00,Wunderground v.1.15,2013-03-07 03:14:00,
2013-03-06 21:20:00,38.2,24.3,30.17,ESE,113,5.0,7.0,57,0.00,,,0.00,Wunderground v.1.15,2013-03-07 03:20:00,
2013-03-06 21:26:00,37.9,24.0,30.16,ESE,116,5.0,7.0,57,0.00,,,0.00,Wunderground v.1.15,2013-03-07 03:26:00,
2013-03-06 21:31:00,37.7,24.2,30.17,SE,128,5.0,8.0,58,0.00,,,0.00,Wunderground v.1.15,2013-03-07 03:31:00,
2013-03-06 21:37:00,37.4,24.8,30.17,SE,139,7.0,9.0,60,0.00,,,0.00,Wunderground v.1.15,2013-03-07 03:37:00,
2013-03-06 21:43:00,36.8,25.4,30.16,SE,136,8.0,10.0,63,0.00,,,0.00,Wunderground v.1.15,2013-03-07 03:43:00,
2013-03-06 21:49:00,36.8,25.0,30.16,SE,133,9.0,11.0,62,0.00,,,0.00,Wunderground v.1.15,2013-03-07 03:49:00,
2013-03-06 21:54:00,36.8,25.0,30.16,SE,128,8.0,10.0,62,0.00,,,0.00,Wunderground v.1.15,2013-03-07 03:54:00,
2013-03-06 22:00:00,36.7,24.9,30.16,ESE,121,7.0,9.0,62,0.00,,,0.00,Wunderground v.1.15,2013-03-07 04:00:00,
2013-03-06 22:05:00,36.7,24.9,30.16,SE,130,7.0,9.0,62,0.00,,,0.00,Wunderground v.1.15,2013-03-07 04:05:00,
2013-03-06 22:10:00,36.6,24.8,30.17,SE,128,6.0,7.0,62,0.00,,,0.00,Wunderground v.1.15,2013-03-07 04:10:00,
2013-03-06 22:16:00,36.5,25.1,30.17,SE,132,5.0,8.0,63,0.00,,,0.00,Wunderground v.1.15,2013-03-07 04:16:00,
2013-03-06 22:21:00,36.2,25.9,30.16,SE,138,7.0,9.0,66,0.00,,,0.00,Wunderground v.1.15,2013-03-07 04:21:00,
2013-03-06 22:26:00,35.8,25.5,30.16,SE,142,8.0,11.0,66,0.00,,,0.00,Wunderground v.1.15,2013-03-07 04:26:00,
2013-03-06 22:32:00,35.9,25.3,30.16,SE,139,8.0,10.0,65,0.00,,,0.00,Wunderground v.1.15,2013-03-07 04:32:00,
2013-03-06 22:37:00,36.2,25.6,30.16,SE,134,8.0,11.0,65,0.00,,,0.00,Wunderground v.1.15,2013-03-07 04:37:00,
2013-03-06 22:43:00,36.2,25.6,30.16,SE,135,8.0,10.0,65,0.00,,,0.00,Wunderground v.1.15,2013-03-07 04:43:00,
2013-03-06 22:48:00,36.0,25.7,30.16,SE,141,9.0,10.0,66,0.00,,,0.00,Wunderground v.1.15,2013-03-07 04:48:00,
2013-03-06 22:53:00,35.9,25.6,30.16,SE,140,10.0,12.0,66,0.00,,,0.00,Wunderground v.1.15,2013-03-07 04:53:00,
2013-03-06 22:58:00,35.9,25.6,30.16,SE,146,11.0,13.0,66,0.00,,,0.00,Wunderground v.1.15,2013-03-07 04:58:00,
2013-03-06 23:00:00,36.0,25.7,30.16,SE,136,11.0,12.0,66,0.00,,,0.00,Wunderground v.1.15,2013-03-07 05:00:00,
2013-03-06 23:01:00,36.0,25.7,30.16,SE,136,11.0,12.0,66,0.00,,,0.00,Wunderground v.1.15,2013-03-07 05:01:00,
2013-03-06 23:06:00,35.9,25.6,30.15,SE,145,11.0,15.0,66,0.00,,,0.00,Wunderground v.1.15,2013-03-07 05:06:00,
2013-03-06 23:10:00,36.1,25.8,30.15,SE,137,13.0,13.0,66,0.00,,,0.00,Wunderground v.1.15,2013-03-07 05:10:00,
2013-03-06 23:15:00,36.2,25.6,30.15,SSE,149,13.0,17.0,65,0.00,,,0.00,Wunderground v.1.15,2013-03-07 05:15:00,
2013-03-06 23:20:00,36.2,25.6,30.16,SSE,148,11.0,12.0,65,0.00,,,0.00,Wunderground v.1.15,2013-03-07 05:20:00,
2013-03-06 23:26:00,36.3,25.7,30.16,SE,137,10.0,13.0,65,0.00,,,0.00,Wunderground v.1.15,2013-03-07 05:26:00,
2013-03-06 23:32:00,36.2,25.9,30.15,SE,137,11.0,12.0,66,0.00,,,0.00,Wunderground v.1.15,2013-03-07 05:32:00,
2013-03-06 23:38:00,36.0,25.7,30.15,SE,137,11.0,14.0,66,0.00,,,0.00,Wunderground v.1.15,2013-03-07 05:38:00,
2013-03-06 23:43:00,35.9,26.0,30.15,SE,140,11.0,12.0,67,0.00,,,0.00,Wunderground v.1.15,2013-03-07 05:43:00,
2013-03-06 23:48:00,35.8,25.5,30.15,SE,129,10.0,12.0,66,0.00,,,0.00,Wunderground v.1.15,2013-03-07 05:48:00,
2013-03-06 23:54:00,35.7,25.4,30.15,SE,142,10.0,12.0,66,0.00,,,0.00,Wunderground v.1.15,2013-03-07 05:54:00,
2013-03-06 23:59:00,35.7,25.8,30.15,SE,146,10.0,12.0,67,0.00,,,0.00,Wunderground v.1.15,2013-03-07 05:59:00,